Flight Track Log - Related Links

Times and Time Zones

All times are in EST time to prevent confusion due to time zone crossing. See the SWA1091 flight status page for this flight to view local times or setup timezone preferences in your user account.

Time Position Orientation Groundspeed Altitude Reporting Facility
EST Latitude Longitude Course Direction KTS MPH feet Rate Location/Type
Sat 10:40:51 PM 36.0761 -115.1683 262° West 151 174 3,200  Level Los Angeles Center
Sat 10:42:06 PM 36.0661 -115.2514 262° West 212 244 5,400 1,725 Climbing Los Angeles Center
Sat 10:42:11 PM 36.0628 -115.2544 217° Southwest 216 249 5,500 1,119 Climbing Los Angeles Center
Sat 10:43:05 PM 36.0028 -115.2881 204° Southwest 259 298 6,500 1,082 Climbing Los Angeles Center
Sat 10:43:12 PM 35.9989 -115.2881 180° South 256 295 6,600 1,200 Climbing Los Angeles Center
Sat 10:44:00 PM 35.9492 -115.3294 214° Southwest 260 299 7,600 1,839 Climbing Los Angeles Center
Sat 10:44:14 PM 35.9369 -115.3431 222° Southwest 259 298 8,500 3,360 Climbing Los Angeles Center
Sat 10:45:15 PM 35.8892 -115.4064 227° Southwest 256 295 11,800 2,439 Climbing Los Angeles Center
Sat 10:46:17 PM 35.8878 -115.5108 269° West 306 352 13,500 2,049 Climbing Los Angeles Center
Sat 10:47:18 PM 35.8900 -115.6461 271° West 367 422 16,000 2,410 Climbing Los Angeles Center
Sat 10:48:19 PM 35.9042 -115.7775 278° West 398 458 18,400 2,585 Climbing Los Angeles Center
Sat 10:49:21 PM 35.9764 -115.8850 310° West 409 471 21,300 2,390 Climbing Los Angeles Center
Sat 10:50:22 PM 36.0381 -115.9750 310° West 408 470 23,300 1,918 Climbing Los Angeles Center
Sat 10:51:23 PM 36.1183 -116.0914 311° West 421 484 25,200 1,770 Climbing Los Angeles Center
Sat 10:52:24 PM 36.2028 -116.2128 311° West 441 507 26,900 2,293 Climbing Los Angeles Center
Sat 10:53:26 PM 36.2828 -116.3311 310° West 450 518 29,900 2,488 Climbing Los Angeles Center
Sat 10:54:27 PM 36.3561 -116.4381 310° West 413 475 32,000 1,770 Climbing Los Angeles Center
Sat 10:55:28 PM 36.4444 -116.5672 310° West 412 474 33,500 1,475 Climbing Los Angeles Center
Sat 10:56:29 PM 36.5192 -116.6769 310° West 415 478 35,000 1,366 Climbing Los Angeles Center
Sat 10:57:31 PM 36.6000 -116.7822 314° West 441 507 36,300 1,317 Climbing Los Angeles Center
Sat 10:58:32 PM 36.7064 -116.8497 333° Northwest 434 499 37,700 836 Climbing Los Angeles Center
Sat 10:59:33 PM 36.8089 -116.9242 330° Northwest 433 498 38,000 148 Climbing Los Angeles Center
Sat 11:00:34 PM 36.9133 -116.9956 331° Northwest 430 495 38,000  Level Los Angeles Center
Sat 11:01:35 PM 37.0169 -117.0686 331° Northwest 428 493 38,000  Level Los Angeles Center
Sat 11:02:37 PM 37.1203 -117.1411 331° Northwest 425 489 38,000  Level Los Angeles Center
Sat 11:03:38 PM 37.2458 -117.2319 330° Northwest 431 496 38,000  Level Los Angeles Center
Sat 11:04:39 PM 37.3522 -117.3056 331° Northwest 434 499 38,000  Level Los Angeles Center
Sat 11:05:40 PM 37.4372 -117.3658 331° Northwest 437 503 38,000  Level Los Angeles Center
Sat 11:06:41 PM 37.5642 -117.4586 330° Northwest 440 506 38,000  Level Los Angeles Center
Sat 11:07:43 PM 37.6694 -117.5328 331° Northwest 433 498 38,000  Level Los Angeles Center
Sat 11:08:33 PM 37.7525 -117.5892 332° Northwest 432 497 38,000  Level Oakland Center
Sat 11:09:34 PM 37.8561 -117.6642 330° Northwest 428 493 38,000  Level Oakland Center
Sat 11:10:35 PM 37.9600 -117.7406 330° Northwest 427 491 38,000  Level Oakland Center
Sat 11:11:36 PM 38.0647 -117.8158 330° Northwest 429 494 38,000  Level Oakland Center
Sat 11:12:36 PM 38.1678 -117.8917 330° Northwest 425 489 38,000  Level Oakland Center
Sat 11:13:37 PM 38.2725 -117.9667 331° Northwest 429 494 38,000  Level Oakland Center
Sat 11:14:38 PM 38.3742 -118.0425 330° Northwest 424 488 38,000  Level Oakland Center
Sat 11:15:39 PM 38.4775 -118.1186 330° Northwest 421 484 38,000  Level Oakland Center
Sat 11:16:40 PM 38.5797 -118.1944 330° Northwest 423 487 38,000  Level Oakland Center
Sat 11:17:40 PM 38.6822 -118.2703 330° Northwest 426 490 38,000  Level Oakland Center
Sat 11:18:41 PM 38.7842 -118.3456 330° Northwest 424 488 38,000  Level Oakland Center
Sat 11:19:42 PM 38.8875 -118.4231 330° Northwest 427 491 38,000  Level Oakland Center
Sat 11:20:43 PM 38.9928 -118.5028 330° Northwest 435 501 38,000  Level Oakland Center
Sat 11:21:43 PM 39.0983 -118.5814 330° Northwest 438 504 38,000  Level Oakland Center
Sat 11:22:44 PM 39.2019 -118.6614 329° Northwest 437 503 38,000  Level Oakland Center
Sat 11:23:45 PM 39.3083 -118.7411 330° Northwest 440 506 38,000  Level Oakland Center
Sat 11:24:45 PM 39.4361 -118.8383 330° Northwest 444 511 38,000  Level Oakland Center
Sat 11:25:46 PM 39.5289 -118.9097 329° Northwest 439 505 38,000  Level Oakland Center
Sat 11:26:47 PM 39.6339 -118.9900 330° Northwest 437 503 38,000  Level Oakland Center
Sat 11:27:48 PM 39.7400 -119.0711 330° Northwest 440 506 38,000  Level Oakland Center
Sat 11:28:48 PM 39.8450 -119.1531 329° Northwest 440 506 38,000  Level Oakland Center
Sat 11:29:49 PM 39.9508 -119.2347 329° Northwest 441 507 38,000  Level Oakland Center
Sat 11:30:50 PM 40.0575 -119.3181 329° Northwest 445 512 38,000  Level Oakland Center
Sat 11:31:50 PM 40.1636 -119.4028 329° Northwest 447 514 38,000  Level Oakland Center
Sat 11:32:51 PM 40.2694 -119.4847 329° Northwest 443 510 38,000  Level Oakland Center
Sat 11:33:52 PM 40.3778 -119.5694 329° Northwest 451 519 38,000  Level Oakland Center
Sat 11:34:52 PM 40.5025 -119.6669 329° Northwest 433 498 38,000  Level Oakland Center
Sat 11:35:53 PM 40.5867 -119.7361 328° Northwest 437 503 38,000  Level Oakland Center
Sat 11:36:54 PM 40.6911 -119.8156 330° Northwest 436 502 38,000  Level Oakland Center
Sat 11:37:55 PM 40.8161 -119.9194 328° Northwest 441 507 38,000  Level Oakland Center
Sat 11:38:55 PM 40.9236 -119.9972 331° Northwest 444 511 38,000  Level Oakland Center
Sat 11:39:29 PM 40.9606 -120.0328 324° Northwest 433 498 38,000  Level Seattle Center
Sat 11:40:30 PM 41.0625 -120.1147 329° Northwest 431 496 38,000  Level Seattle Center
Sat 11:41:30 PM 41.1842 -120.2114 329° Northwest 424 488 38,000  Level Seattle Center
Sat 11:42:31 PM 41.2831 -120.2944 328° Northwest 424 488 38,000  Level Seattle Center
Sat 11:43:31 PM 41.3853 -120.3778 329° Northwest 430 495 38,000  Level Seattle Center
Sat 11:44:32 PM 41.4897 -120.4600 329° Northwest 436 502 38,000  Level Seattle Center
Sat 11:45:32 PM 41.5931 -120.5433 329° Northwest 435 501 38,000  Level Seattle Center
Sat 11:46:33 PM 41.6947 -120.6292 328° Northwest 434 499 38,000  Level Seattle Center
Sat 11:47:33 PM 41.7961 -120.7150 328° Northwest 433 498 38,000  Level Seattle Center
Sat 11:48:34 PM 41.9019 -120.8017 329° Northwest 449 517 38,000  Level Seattle Center
Sat 11:49:34 PM 42.0069 -120.8892 328° Northwest 447 514 38,000 -198 Level Seattle Center
Sat 11:50:35 PM 42.1131 -120.9769 328° Northwest 449 517 37,600 -645 Descending Seattle Center
Sat 11:51:35 PM 42.2192 -121.0667 328° Northwest 454 522 36,700 -793 Descending Seattle Center
Sat 11:52:36 PM 42.3239 -121.1539 328° Northwest 436 502 36,000 -347 Descending Seattle Center
Sat 11:53:36 PM 42.4258 -121.2422 327° Northwest 439 505 36,000  Level Seattle Center
Sat 11:54:37 PM 42.5289 -121.3306 328° Northwest 443 510 36,000  Level Seattle Center
Sat 11:55:37 PM 42.6339 -121.4208 328° Northwest 449 517 36,000  Level Seattle Center
Sat 11:56:38 PM 42.7392 -121.5108 328° Northwest 450 518 36,000  Level Seattle Center
Sat 11:57:39 PM 42.8636 -121.6169 328° Northwest 446 513 36,000  Level Seattle Center
Sat 11:58:39 PM 42.9669 -121.7069 327° Northwest 447 514 36,000  Level Seattle Center
Sat 11:59:40 PM 43.0728 -121.7922 330° Northwest 446 513 36,000  Level Seattle Center
Sun 12:00:40 AM 43.1978 -121.8433 343° North 469 540 36,000  Level Seattle Center
Sun 12:01:41 AM 43.3214 -121.8989 342° North 460 529 36,000  Level Seattle Center
Sun 12:02:41 AM 43.4458 -121.9569 341° North 474 545 36,000  Level Seattle Center
Sun 12:03:42 AM 43.5736 -122.0122 343° North 483 556 36,000  Level Seattle Center
Sun 12:04:42 AM 43.6975 -122.0703 341° North 474 545 36,000  Level Seattle Center
Sun 12:05:43 AM 43.8208 -122.1281 341° North 471 542 36,000 -149 Level Seattle Center
Sun 12:06:43 AM 43.9472 -122.1847 342° North 475 547 35,700 -893 Descending Seattle Center
Sun 12:07:44 AM 44.0692 -122.2425 341° North 469 540 34,200 -2,132 Descending Seattle Center
Sun 12:08:44 AM 44.1931 -122.3003 342° North 470 541 31,400 -3,471 Descending Seattle Center
Sun 12:09:45 AM 44.3172 -122.3592 341° North 471 542 27,200 -3,570 Descending Seattle Center
Sun 12:10:45 AM 44.4433 -122.4189 341° North 478 550 24,200 -2,826 Descending Seattle Center
Sun 12:11:46 AM 44.5622 -122.4753 341° North 462 532 21,500 -2,885 Descending Seattle Center
Sun 12:12:29 AM 44.6556 -122.5231 340° North 434 499 19,200 -2,700 Descending Seattle Center
Sun 12:12:46 AM 44.6753 -122.5306 345° North 439 505 18,800 -2,857 Descending Seattle Center
Sun 12:13:11 AM 44.7322 -122.5589 341° North 417 480 17,200 -3,246 Descending Seattle Center
Sun 12:13:47 AM 44.7964 -122.5908 341° North 421 484 15,500 -2,656 Descending Seattle Center
Sun 12:14:12 AM 44.8403 -122.6097 343° North 408 470 14,500 -2,600 Descending Seattle Center
Sun 12:14:47 AM 44.9064 -122.6433 340° North 411 473 12,900 -2,300 Descending Seattle Center
Sun 12:15:12 AM 44.9461 -122.6614 342° North 406 467 12,200 -1,300 Descending Seattle Center
Sun 12:15:47 AM 45.0133 -122.6664 357° North 392 451 11,600 -1,180 Descending Seattle Center
Sun 12:16:13 AM 45.0528 -122.6642 North 379 436 11,000 -1,574 Descending Seattle Center
Sun 12:16:48 AM 45.1167 -122.6567 North 374 430 10,000 -1,180 Descending Seattle Center
Sun 12:17:14 AM 45.1525 -122.6544 North 359 413 9,800 -500 Descending Seattle Center
Sun 12:17:48 AM 45.2083 -122.6469 North 331 381 9,500 -800 Descending Seattle Center
Sun 12:18:14 AM 45.2453 -122.6414 North 300 345 9,000 -590 Descending Seattle Center
Sun 12:18:49 AM 45.2744 -122.5897 51° Northeast 308 354 8,900 -689 Descending Seattle Center
Sun 12:19:15 AM 45.2936 -122.5481 57° Northeast 282 325 8,300 -1,600 Descending Seattle Center
Sun 12:19:49 AM 45.3197 -122.5003 52° Northeast 282 325 7,300 -1,900 Descending Seattle Center
Sun 12:20:15 AM 45.3417 -122.4639 49° Northeast 273 314 6,400 -1,869 Descending Seattle Center
Sun 12:20:50 AM 45.3747 -122.4264 39° Northeast 274 315 5,400 -1,377 Descending Seattle Center
Sun 12:21:16 AM 45.4025 -122.4019 32° Northeast 264 304 5,000 -800 Descending Seattle Center
Sun 12:21:50 AM 45.4392 -122.3894 13° North 222 255 4,600 -885 Descending Seattle Center
Sun 12:22:17 AM 45.4575 -122.3947 349° North 188 216 4,100 -1,279 Descending Seattle Center
Sun 12:22:51 AM 45.4881 -122.4069 344° North 184 212 3,300 -1,200 Descending Seattle Center
Sun 12:23:17 AM 45.5017 -122.4197 327° Northwest 156 180 2,900 -900 Descending Seattle Center
Sun 12:23:51 AM 45.5236 -122.4403 327° Northwest 157 181 2,400 -655 Descending Seattle Center
Sun 12:24:12 AM 45.5308 -122.4572 301° West 153 176 2,300 -885 Descending Seattle Center
Sun 12:24:52 AM 45.5464 -122.4969 299° West 166 191 1,500 -1,100 Descending Seattle Center
Sun 12:25:12 AM 45.5531 -122.5128 301° West 161 185 1,200 -900 Descending Seattle Center
Sun 12:25:52 AM 45.5664 -122.5481 298° West 153 176 600 -806 Descending Seattle Center
Sun 12:26:19 AM 45.5758 -122.5714 300° West 143 165 300 34,820 Descending Seattle Center
Sun 12:26:53 AM 45.5842 -122.5936 298° West 144 166 36,000 63,000 Climbing Seattle Center
Sun 12:28:00 AM 45.5833 -122.5833 306° West  Level FlightAware Approximate
Sun 12:35:00 AM 45.5887 -122.5969 306° West  Level Estimated
Sun 12:36:00 AM 45.5887 -122.5969 306° West  Level Estimated

Login

Don't have an account? Register now (free) for customized features, flight alerts, and more!